sensor_id;sensor_type;location;lat;lon;timestamp;P1;durP1;ratioP1;P2;durP2;ratioP2
60078;SDS011;45951;45.824;8.824;2022-09-12T00:04:27;2.05;;;1.25;;
60078;SDS011;45951;45.824;8.824;2022-09-12T00:10:27;1.92;;;1.42;;
60078;SDS011;45951;45.824;8.824;2022-09-12T00:16:29;1.27;;;1.17;;
60078;SDS011;45951;45.824;8.824;2022-09-12T00:22:30;1.42;;;1.25;;
60078;SDS011;45951;45.824;8.824;2022-09-12T00:28:31;1.13;;;1.02;;
60078;SDS011;45951;45.824;8.824;2022-09-12T00:34:32;0.95;;;0.93;;
60078;SDS011;45951;45.824;8.824;2022-09-12T00:40:33;1.13;;;1.00;;
60078;SDS011;45951;45.824;8.824;2022-09-12T00:46:38;2.15;;;1.13;;
60078;SDS011;45951;45.824;8.824;2022-09-12T00:52:46;2.53;;;1.05;;
60078;SDS011;45951;45.824;8.824;2022-09-12T00:58:51;2.70;;;0.95;;
60078;SDS011;45951;45.824;8.824;2022-09-12T01:04:56;1.42;;;1.00;;
60078;SDS011;45951;45.824;8.824;2022-09-12T01:10:56;1.13;;;1.03;;
60078;SDS011;45951;45.824;8.824;2022-09-12T01:16:57;1.83;;;1.00;;
60078;SDS011;45951;45.824;8.824;2022-09-12T01:29:31;1.67;;;1.02;;
60078;SDS011;45951;45.824;8.824;2022-09-12T01:35:44;2.03;;;1.10;;
60078;SDS011;45951;45.824;8.824;2022-09-12T01:48:10;2.15;;;1.10;;
60078;SDS011;45951;45.824;8.824;2022-09-12T01:54:14;1.15;;;1.05;;
60078;SDS011;45951;45.824;8.824;2022-09-12T02:00:19;2.92;;;1.00;;
60078;SDS011;45951;45.824;8.824;2022-09-12T02:06:21;1.67;;;1.13;;
60078;SDS011;45951;45.824;8.824;2022-09-12T02:12:26;1.70;;;0.82;;
60078;SDS011;45951;45.824;8.824;2022-09-12T02:18:30;1.05;;;1.05;;
60078;SDS011;45951;45.824;8.824;2022-09-12T02:24:34;2.53;;;0.80;;
60078;SDS011;45951;45.824;8.824;2022-09-12T02:30:38;2.90;;;1.00;;
60078;SDS011;45951;45.824;8.824;2022-09-12T02:42:55;1.08;;;0.93;;
60078;SDS011;45951;45.824;8.824;2022-09-12T02:48:56;1.43;;;1.10;;
60078;SDS011;45951;45.824;8.824;2022-09-12T02:54:57;1.00;;;1.00;;
60078;SDS011;45951;45.824;8.824;2022-09-12T03:01:06;1.20;;;1.10;;
60078;SDS011;45951;45.824;8.824;2022-09-12T03:25:51;1.50;;;1.17;;
60078;SDS011;45951;45.824;8.824;2022-09-12T03:31:56;1.80;;;1.20;;
60078;SDS011;45951;45.824;8.824;2022-09-12T03:37:57;1.98;;;1.27;;
60078;SDS011;45951;45.824;8.824;2022-09-12T03:43:57;1.20;;;1.10;;
60078;SDS011;45951;45.824;8.824;2022-09-12T03:49:58;1.33;;;1.05;;
60078;SDS011;45951;45.824;8.824;2022-09-12T03:55:59;1.73;;;1.30;;
60078;SDS011;45951;45.824;8.824;2022-09-12T04:01:59;5.53;;;1.35;;
60078;SDS011;45951;45.824;8.824;2022-09-12T04:08:00;1.50;;;1.10;;
60078;SDS011;45951;45.824;8.824;2022-09-12T04:14:00;1.17;;;1.08;;
60078;SDS011;45951;45.824;8.824;2022-09-12T04:20:01;1.02;;;0.95;;
60078;SDS011;45951;45.824;8.824;2022-09-12T04:26:02;2.00;;;1.00;;
60078;SDS011;45951;45.824;8.824;2022-09-12T04:32:05;1.85;;;1.20;;
60078;SDS011;45951;45.824;8.824;2022-09-12T04:38:05;2.20;;;1.10;;
60078;SDS011;45951;45.824;8.824;2022-09-12T04:44:07;3.22;;;1.60;;
60078;SDS011;45951;45.824;8.824;2022-09-12T04:50:10;1.58;;;1.30;;
60078;SDS011;45951;45.824;8.824;2022-09-12T04:56:11;3.43;;;1.43;;
60078;SDS011;45951;45.824;8.824;2022-09-12T05:02:11;1.27;;;1.17;;
60078;SDS011;45951;45.824;8.824;2022-09-12T05:08:11;2.10;;;1.45;;
60078;SDS011;45951;45.824;8.824;2022-09-12T05:14:12;5.53;;;2.70;;
60078;SDS011;45951;45.824;8.824;2022-09-12T05:20:12;2.05;;;1.15;;
60078;SDS011;45951;45.824;8.824;2022-09-12T05:26:13;2.37;;;1.47;;
60078;SDS011;45951;45.824;8.824;2022-09-12T05:32:14;2.42;;;1.70;;
60078;SDS011;45951;45.824;8.824;2022-09-12T05:38:15;1.95;;;1.63;;
60078;SDS011;45951;45.824;8.824;2022-09-12T05:44:15;2.42;;;1.25;;
60078;SDS011;45951;45.824;8.824;2022-09-12T05:50:16;3.03;;;1.80;;
60078;SDS011;45951;45.824;8.824;2022-09-12T05:56:17;3.75;;;2.00;;
60078;SDS011;45951;45.824;8.824;2022-09-12T06:02:18;2.88;;;1.70;;
60078;SDS011;45951;45.824;8.824;2022-09-12T06:08:18;2.28;;;1.45;;
60078;SDS011;45951;45.824;8.824;2022-09-12T06:14:19;2.47;;;1.55;;
60078;SDS011;45951;45.824;8.824;2022-09-12T06:20:19;1.73;;;1.33;;
60078;SDS011;45951;45.824;8.824;2022-09-12T06:26:20;4.28;;;2.33;;
60078;SDS011;45951;45.824;8.824;2022-09-12T06:32:22;2.83;;;1.20;;
60078;SDS011;45951;45.824;8.824;2022-09-12T06:38:22;2.77;;;1.60;;
60078;SDS011;45951;45.824;8.824;2022-09-12T06:44:23;2.60;;;1.90;;
60078;SDS011;45951;45.824;8.824;2022-09-12T06:50:23;4.07;;;2.45;;
60078;SDS011;45951;45.824;8.824;2022-09-12T06:56:25;3.72;;;1.60;;
60078;SDS011;45951;45.824;8.824;2022-09-12T07:02:26;3.58;;;1.55;;
60078;SDS011;45951;45.824;8.824;2022-09-12T07:08:26;3.75;;;1.73;;
60078;SDS011;45951;45.824;8.824;2022-09-12T07:14:30;4.05;;;3.00;;
60078;SDS011;45951;45.824;8.824;2022-09-12T07:20:32;5.95;;;3.20;;
60078;SDS011;45951;45.824;8.824;2022-09-12T07:26:32;4.90;;;2.67;;
60078;SDS011;45951;45.824;8.824;2022-09-12T07:32:32;4.90;;;2.80;;
60078;SDS011;45951;45.824;8.824;2022-09-12T07:38:33;4.55;;;2.20;;
60078;SDS011;45951;45.824;8.824;2022-09-12T07:44:33;2.63;;;2.03;;
60078;SDS011;45951;45.824;8.824;2022-09-12T07:50:34;1.73;;;1.60;;
60078;SDS011;45951;45.824;8.824;2022-09-12T07:56:38;2.33;;;1.67;;
60078;SDS011;45951;45.824;8.824;2022-09-12T08:02:38;2.05;;;1.40;;
60078;SDS011;45951;45.824;8.824;2022-09-12T08:08:39;2.27;;;1.60;;
60078;SDS011;45951;45.824;8.824;2022-09-12T08:14:39;3.05;;;1.42;;
60078;SDS011;45951;45.824;8.824;2022-09-12T08:20:39;1.75;;;1.40;;
60078;SDS011;45951;45.824;8.824;2022-09-12T08:26:40;4.03;;;1.40;;
60078;SDS011;45951;45.824;8.824;2022-09-12T08:32:40;3.22;;;1.92;;
60078;SDS011;45951;45.824;8.824;2022-09-12T08:38:42;3.33;;;1.48;;
60078;SDS011;45951;45.824;8.824;2022-09-12T08:50:48;2.22;;;1.80;;
60078;SDS011;45951;45.824;8.824;2022-09-12T08:56:48;5.55;;;3.05;;
60078;SDS011;45951;45.824;8.824;2022-09-12T09:22:00;5.22;;;2.78;;
60078;SDS011;45951;45.824;8.824;2022-09-12T09:27:57;4.90;;;2.80;;
60078;SDS011;45951;45.824;8.824;2022-09-12T09:34:04;6.68;;;3.30;;
60078;SDS011;45951;45.824;8.824;2022-09-12T09:40:23;4.55;;;3.03;;
60078;SDS011;45951;45.824;8.824;2022-09-12T09:46:26;5.70;;;3.15;;
60078;SDS011;45951;45.824;8.824;2022-09-12T09:52:28;5.55;;;3.17;;
60078;SDS011;45951;45.824;8.824;2022-09-12T09:58:33;6.72;;;3.10;;
60078;SDS011;45951;45.824;8.824;2022-09-12T10:04:35;7.43;;;3.17;;
60078;SDS011;45951;45.824;8.824;2022-09-12T10:10:51;5.70;;;3.47;;
60078;SDS011;45951;45.824;8.824;2022-09-12T10:16:57;5.18;;;3.30;;
60078;SDS011;45951;45.824;8.824;2022-09-12T10:22:59;6.95;;;4.45;;
60078;SDS011;45951;45.824;8.824;2022-09-12T10:29:09;5.00;;;3.00;;
60078;SDS011;45951;45.824;8.824;2022-09-12T10:35:16;4.80;;;3.08;;
60078;SDS011;45951;45.824;8.824;2022-09-12T10:41:18;4.88;;;3.33;;
60078;SDS011;45951;45.824;8.824;2022-09-12T10:47:20;7.03;;;3.65;;
60078;SDS011;45951;45.824;8.824;2022-09-12T10:53:43;4.97;;;3.10;;
60078;SDS011;45951;45.824;8.824;2022-09-12T11:05:58;4.72;;;2.92;;
60078;SDS011;45951;45.824;8.824;2022-09-12T11:19:07;5.25;;;3.63;;
60078;SDS011;45951;45.824;8.824;2022-09-12T11:37:47;5.60;;;3.10;;
60078;SDS011;45951;45.824;8.824;2022-09-12T11:44:02;6.85;;;3.80;;
60078;SDS011;45951;45.824;8.824;2022-09-12T11:50:20;6.45;;;3.25;;
60078;SDS011;45951;45.824;8.824;2022-09-12T11:56:30;6.45;;;2.83;;
60078;SDS011;45951;45.824;8.824;2022-09-12T12:02:34;5.87;;;3.60;;
60078;SDS011;45951;45.824;8.824;2022-09-12T12:08:39;5.95;;;3.03;;
60078;SDS011;45951;45.824;8.824;2022-09-12T12:14:42;7.20;;;3.60;;
60078;SDS011;45951;45.824;8.824;2022-09-12T12:20:44;5.68;;;3.05;;
60078;SDS011;45951;45.824;8.824;2022-09-12T12:57:47;6.50;;;3.20;;
60078;SDS011;45951;45.824;8.824;2022-09-12T13:03:56;3.38;;;2.75;;
60078;SDS011;45951;45.824;8.824;2022-09-12T13:10:00;5.25;;;2.78;;
60078;SDS011;45951;45.824;8.824;2022-09-12T13:16:00;5.50;;;2.95;;
60078;SDS011;45951;45.824;8.824;2022-09-12T13:22:05;4.13;;;2.72;;
60078;SDS011;45951;45.824;8.824;2022-09-12T13:34:10;6.20;;;3.22;;
60078;SDS011;45951;45.824;8.824;2022-09-12T13:52:41;3.30;;;2.30;;
60078;SDS011;45951;45.824;8.824;2022-09-12T13:58:56;5.45;;;2.70;;
60078;SDS011;45951;45.824;8.824;2022-09-12T14:04:57;4.10;;;2.47;;
60078;SDS011;45951;45.824;8.824;2022-09-12T14:11:08;3.53;;;2.38;;
60078;SDS011;45951;45.824;8.824;2022-09-12T14:23:28;5.50;;;2.60;;
60078;SDS011;45951;45.824;8.824;2022-09-12T14:29:29;3.72;;;2.50;;
60078;SDS011;45951;45.824;8.824;2022-09-12T14:35:30;2.95;;;2.40;;
60078;SDS011;45951;45.824;8.824;2022-09-12T14:41:35;5.53;;;2.47;;
60078;SDS011;45951;45.824;8.824;2022-09-12T14:47:38;3.55;;;2.58;;
60078;SDS011;45951;45.824;8.824;2022-09-12T14:53:45;4.18;;;2.45;;
60078;SDS011;45951;45.824;8.824;2022-09-12T14:59:47;5.28;;;2.70;;
60078;SDS011;45951;45.824;8.824;2022-09-12T15:05:47;5.57;;;2.80;;
60078;SDS011;45951;45.824;8.824;2022-09-12T15:11:48;5.22;;;2.90;;
60078;SDS011;45951;45.824;8.824;2022-09-12T15:17:48;6.53;;;4.10;;
60078;SDS011;45951;45.824;8.824;2022-09-12T15:23:49;4.97;;;2.70;;
60078;SDS011;45951;45.824;8.824;2022-09-12T15:29:51;5.18;;;2.67;;
60078;SDS011;45951;45.824;8.824;2022-09-12T15:35:52;3.97;;;2.60;;
60078;SDS011;45951;45.824;8.824;2022-09-12T15:41:52;3.20;;;2.38;;
60078;SDS011;45951;45.824;8.824;2022-09-12T15:47:53;4.90;;;2.87;;
60078;SDS011;45951;45.824;8.824;2022-09-12T15:53:53;5.18;;;2.95;;
60078;SDS011;45951;45.824;8.824;2022-09-12T15:59:54;6.68;;;2.75;;
60078;SDS011;45951;45.824;8.824;2022-09-12T16:05:56;5.07;;;2.60;;
60078;SDS011;45951;45.824;8.824;2022-09-12T16:11:57;3.53;;;2.20;;
60078;SDS011;45951;45.824;8.824;2022-09-12T16:17:58;4.43;;;2.75;;
60078;SDS011;45951;45.824;8.824;2022-09-12T16:23:58;4.85;;;2.60;;
60078;SDS011;45951;45.824;8.824;2022-09-12T16:29:58;3.75;;;2.70;;
60078;SDS011;45951;45.824;8.824;2022-09-12T16:36:03;6.97;;;2.67;;
60078;SDS011;45951;45.824;8.824;2022-09-12T16:42:05;4.13;;;2.75;;
60078;SDS011;45951;45.824;8.824;2022-09-12T16:48:05;4.50;;;2.60;;
60078;SDS011;45951;45.824;8.824;2022-09-12T16:54:06;3.92;;;2.45;;
60078;SDS011;45951;45.824;8.824;2022-09-12T17:00:06;5.38;;;2.85;;
60078;SDS011;45951;45.824;8.824;2022-09-12T17:06:16;5.55;;;3.33;;
60078;SDS011;45951;45.824;8.824;2022-09-12T17:12:17;5.43;;;2.92;;
60078;SDS011;45951;45.824;8.824;2022-09-12T17:18:17;4.75;;;2.67;;
60078;SDS011;45951;45.824;8.824;2022-09-12T17:24:18;3.83;;;2.72;;
60078;SDS011;45951;45.824;8.824;2022-09-12T17:30:19;4.60;;;2.95;;
60078;SDS011;45951;45.824;8.824;2022-09-12T17:36:19;3.60;;;2.88;;
60078;SDS011;45951;45.824;8.824;2022-09-12T17:42:20;5.25;;;3.28;;
60078;SDS011;45951;45.824;8.824;2022-09-12T17:48:23;6.88;;;3.50;;
60078;SDS011;45951;45.824;8.824;2022-09-12T17:54:23;5.10;;;3.20;;
60078;SDS011;45951;45.824;8.824;2022-09-12T18:00:23;5.47;;;3.47;;
60078;SDS011;45951;45.824;8.824;2022-09-12T18:06:44;5.50;;;3.40;;
60078;SDS011;45951;45.824;8.824;2022-09-12T18:12:47;5.72;;;3.10;;
60078;SDS011;45951;45.824;8.824;2022-09-12T18:18:49;7.85;;;3.53;;
60078;SDS011;45951;45.824;8.824;2022-09-12T18:24:50;5.20;;;3.30;;
60078;SDS011;45951;45.824;8.824;2022-09-12T18:30:50;4.63;;;3.13;;
60078;SDS011;45951;45.824;8.824;2022-09-12T18:36:50;6.00;;;3.50;;
60078;SDS011;45951;45.824;8.824;2022-09-12T18:42:53;7.25;;;3.67;;
60078;SDS011;45951;45.824;8.824;2022-09-12T18:48:54;6.25;;;3.28;;
60078;SDS011;45951;45.824;8.824;2022-09-12T18:54:56;5.10;;;3.15;;
60078;SDS011;45951;45.824;8.824;2022-09-12T19:00:57;4.60;;;2.95;;
60078;SDS011;45951;45.824;8.824;2022-09-12T19:06:57;4.95;;;3.22;;
60078;SDS011;45951;45.824;8.824;2022-09-12T19:12:58;4.33;;;3.10;;
60078;SDS011;45951;45.824;8.824;2022-09-12T19:18:58;6.68;;;3.15;;
60078;SDS011;45951;45.824;8.824;2022-09-12T19:24:59;5.00;;;3.13;;
60078;SDS011;45951;45.824;8.824;2022-09-12T19:31:02;5.68;;;2.90;;
60078;SDS011;45951;45.824;8.824;2022-09-12T19:37:04;4.13;;;2.70;;
60078;SDS011;45951;45.824;8.824;2022-09-12T19:43:08;4.10;;;2.90;;
60078;SDS011;45951;45.824;8.824;2022-09-12T19:49:09;5.07;;;2.85;;
60078;SDS011;45951;45.824;8.824;2022-09-12T19:55:10;6.03;;;3.22;;
60078;SDS011;45951;45.824;8.824;2022-09-12T20:01:12;5.65;;;2.90;;
60078;SDS011;45951;45.824;8.824;2022-09-12T20:07:16;5.07;;;2.72;;
60078;SDS011;45951;45.824;8.824;2022-09-12T20:13:17;4.67;;;3.00;;
60078;SDS011;45951;45.824;8.824;2022-09-12T20:19:17;5.47;;;2.95;;
60078;SDS011;45951;45.824;8.824;2022-09-12T20:25:18;6.00;;;2.97;;
60078;SDS011;45951;45.824;8.824;2022-09-12T20:31:19;3.95;;;2.80;;
60078;SDS011;45951;45.824;8.824;2022-09-12T20:37:19;5.13;;;2.57;;
60078;SDS011;45951;45.824;8.824;2022-09-12T20:43:20;4.78;;;3.10;;
60078;SDS011;45951;45.824;8.824;2022-09-12T20:49:20;6.53;;;3.10;;
60078;SDS011;45951;45.824;8.824;2022-09-12T20:55:22;6.90;;;3.00;;
60078;SDS011;45951;45.824;8.824;2022-09-12T21:01:23;5.45;;;2.70;;
60078;SDS011;45951;45.824;8.824;2022-09-12T21:07:25;3.50;;;2.35;;
60078;SDS011;45951;45.824;8.824;2022-09-12T21:13:25;5.57;;;2.92;;
60078;SDS011;45951;45.824;8.824;2022-09-12T21:19:25;3.78;;;2.53;;
60078;SDS011;45951;45.824;8.824;2022-09-12T21:25:26;4.28;;;2.53;;
60078;SDS011;45951;45.824;8.824;2022-09-12T21:31:28;3.85;;;2.80;;
60078;SDS011;45951;45.824;8.824;2022-09-12T21:37:29;4.13;;;2.70;;
60078;SDS011;45951;45.824;8.824;2022-09-12T21:43:30;3.58;;;2.70;;
60078;SDS011;45951;45.824;8.824;2022-09-12T21:49:30;4.80;;;2.80;;
60078;SDS011;45951;45.824;8.824;2022-09-12T21:55:30;3.10;;;2.58;;
60078;SDS011;45951;45.824;8.824;2022-09-12T22:01:31;4.83;;;2.80;;
60078;SDS011;45951;45.824;8.824;2022-09-12T22:07:31;5.28;;;2.80;;
60078;SDS011;45951;45.824;8.824;2022-09-12T22:13:32;4.73;;;3.10;;
60078;SDS011;45951;45.824;8.824;2022-09-12T22:19:32;5.72;;;2.80;;
60078;SDS011;45951;45.824;8.824;2022-09-12T22:25:33;4.05;;;2.92;;
60078;SDS011;45951;45.824;8.824;2022-09-12T22:31:33;3.75;;;2.55;;
60078;SDS011;45951;45.824;8.824;2022-09-12T22:37:33;3.67;;;2.30;;
60078;SDS011;45951;45.824;8.824;2022-09-12T22:43:34;4.93;;;2.50;;
60078;SDS011;45951;45.824;8.824;2022-09-12T22:49:35;3.58;;;2.42;;
60078;SDS011;45951;45.824;8.824;2022-09-12T22:55:35;2.90;;;2.40;;
60078;SDS011;45951;45.824;8.824;2022-09-12T23:01:36;4.90;;;2.63;;
60078;SDS011;45951;45.824;8.824;2022-09-12T23:07:36;4.03;;;2.60;;
60078;SDS011;45951;45.824;8.824;2022-09-12T23:13:36;3.67;;;2.40;;
60078;SDS011;45951;45.824;8.824;2022-09-12T23:19:37;3.30;;;2.50;;
60078;SDS011;45951;45.824;8.824;2022-09-12T23:25:37;5.45;;;2.53;;
60078;SDS011;45951;45.824;8.824;2022-09-12T23:31:37;5.10;;;2.70;;
60078;SDS011;45951;45.824;8.824;2022-09-12T23:37:38;4.70;;;2.40;;
60078;SDS011;45951;45.824;8.824;2022-09-12T23:43:38;3.23;;;2.40;;
60078;SDS011;45951;45.824;8.824;2022-09-12T23:49:39;4.18;;;2.40;;
60078;SDS011;45951;45.824;8.824;2022-09-12T23:55:39;4.45;;;2.47;;
